createdAt,value
2023-03-05T00:03:42.626Z,3.16
2023-03-05T00:23:42.770Z,2.94
2023-03-05T00:43:42.668Z,2.78
2023-03-05T01:03:42.675Z,2.72
2023-03-05T01:23:42.690Z,2.77
2023-03-05T01:43:42.814Z,2.75
2023-03-05T02:03:42.847Z,2.66
2023-03-05T02:23:42.816Z,2.58
2023-03-05T02:43:42.890Z,2.53
2023-03-05T03:03:43.019Z,2.46
2023-03-05T03:23:42.943Z,2.43
2023-03-05T03:43:43.136Z,2.43
2023-03-05T04:03:43.001Z,2.44
2023-03-05T04:23:43.092Z,2.41
2023-03-05T04:43:43.165Z,2.33
2023-03-05T05:03:43.218Z,2.22
2023-03-05T05:23:43.186Z,2.09
2023-03-05T05:43:43.280Z,2.07
2023-03-05T06:03:43.507Z,2.07
2023-03-05T06:23:43.412Z,1.99
2023-03-05T06:43:43.479Z,2
2023-03-05T07:03:43.498Z,2.17
2023-03-05T07:23:43.510Z,2.39
2023-03-05T07:43:43.547Z,2.68
2023-03-05T08:03:43.740Z,2.98
2023-03-05T08:43:43.834Z,3.2
2023-03-05T09:03:44.247Z,3.19
2023-03-05T09:23:45.384Z,4.02
2023-03-05T09:43:43.849Z,4.51
2023-03-05T10:03:44.180Z,4.39
2023-03-05T10:23:44.015Z,4.97
2023-03-05T10:43:44.036Z,4.25
2023-03-05T11:03:44.100Z,4.3
2023-03-05T11:23:44.156Z,4.42
2023-03-05T11:43:44.178Z,4.75
2023-03-05T12:03:44.248Z,5.64
2023-03-05T12:23:44.345Z,4.92
2023-03-05T12:43:44.354Z,4.52
2023-03-05T13:03:44.362Z,4.5
2023-03-05T13:23:44.424Z,4.38
2023-03-05T13:43:44.400Z,4.76
2023-03-05T14:03:44.519Z,4.42
2023-03-05T14:23:44.595Z,4.25
2023-03-05T14:43:44.619Z,4.12
2023-03-05T15:03:44.630Z,4.04
2023-03-05T15:23:44.659Z,3.86
2023-03-05T15:43:44.711Z,3.7
2023-03-05T16:03:44.695Z,3.55
2023-03-05T16:23:44.787Z,3.51
2023-03-05T16:43:44.899Z,3.42
2023-03-05T17:03:45.041Z,3.33
2023-03-05T17:23:44.908Z,3.22
2023-03-05T17:43:44.989Z,3.16
2023-03-05T18:03:45.048Z,3.09
2023-03-05T18:23:45.013Z,3.03
2023-03-05T18:43:45.117Z,2.96
2023-03-05T19:03:45.185Z,2.89
2023-03-05T19:23:45.222Z,2.87
2023-03-05T19:43:45.302Z,2.73
2023-03-05T20:03:45.362Z,2.43
2023-03-05T20:23:45.373Z,2.41
2023-03-05T20:43:45.376Z,2.33
2023-03-05T21:03:45.444Z,2.27
2023-03-05T21:23:45.417Z,2.23
2023-03-05T21:43:45.590Z,2.18
2023-03-05T22:03:45.536Z,2.09
2023-03-05T22:23:45.660Z,2
2023-03-05T22:43:45.616Z,2.07
2023-03-05T23:03:45.872Z,1.87
2023-03-05T23:23:45.815Z,1.72
2023-03-05T23:43:45.781Z,1.5
